Time;durP1;ratioP1;P1;durP2;ratioP2;P2;SDS_P1;SDS_P2;PMS_P1;PMS_P2;Temp;Humidity;BMP_temperature;BMP_pressure;BME280_temperature;BME280_humidity;BME280_pressure;Samples;Min_cycle;Max_cycle;Signal;HPM_P1;HPM_P2
2024/01/26 00:01:53;;;;;;;5.60;3.80;;;;;;;8.84;57.49;98964.91;108136;1253;61265;-63
2024/01/26 00:04:20;;;;;;;8.40;4.80;;;;;;;8.87;57.54;98965.64;108077;1253;60369;-64
2024/01/26 00:06:47;;;;;;;8.90;4.70;;;;;;;8.97;57.28;98971.77;108056;1253;73877;-64
2024/01/26 00:09:15;;;;;;;6.40;3.70;;;;;;;8.99;57.25;98974.66;108103;1253;70148;-64
2024/01/26 00:11:42;;;;;;;6.90;4.70;;;;;;;9.03;57.17;98974.81;108051;1253;73435;-66
2024/01/26 00:14:09;;;;;;;7.50;4.50;;;;;;;8.97;57.38;98982.63;108068;1253;61048;-65
2024/01/26 00:16:37;;;;;;;8.70;4.20;;;;;;;8.84;57.77;98982.77;108194;1253;59397;-66
2024/01/26 00:19:04;;;;;;;6.30;4.00;;;;;;;8.92;57.59;98987.98;108120;1253;73935;-65
2024/01/26 00:21:31;;;;;;;5.40;4.00;;;;;;;8.85;57.80;98990.55;108097;1253;67877;-66
2024/01/26 00:23:58;;;;;;;6.40;4.00;;;;;;;8.85;57.84;98990.41;108141;1253;72604;-65
2024/01/26 00:26:24;;;;;;;6.00;4.40;;;;;;;8.81;57.97;98994.63;108125;1254;61029;-66
2024/01/26 00:28:51;;;;;;;7.20;4.00;;;;;;;8.91;57.59;98993.77;108105;1253;60398;-64
2024/01/26 00:31:18;;;;;;;6.50;4.50;;;;;;;8.83;57.83;98990.70;108023;1253;73895;-66
2024/01/26 00:33:45;;;;;;;6.50;4.30;;;;;;;8.69;58.18;98994.67;108102;1255;70221;-65
2024/01/26 00:36:12;;;;;;;8.60;4.50;;;;;;;8.67;58.41;98993.91;107921;1253;72798;-66
2024/01/26 00:38:40;;;;;;;5.50;3.90;;;;;;;8.83;58.00;98993.30;108086;1253;60961;-66
2024/01/26 00:41:06;;;;;;;5.70;3.80;;;;;;;8.83;58.02;98996.95;108155;1253;60335;-66
2024/01/26 00:43:33;;;;;;;9.20;6.00;;;;;;;8.71;58.06;98994.41;108170;1253;74541;-66
2024/01/26 00:46:00;;;;;;;11.20;5.20;;;;;;;8.67;58.35;98995.64;108207;1253;71147;-65
2024/01/26 00:48:26;;;;;;;9.50;5.30;;;;;;;8.67;58.17;98994.60;108129;1253;72939;-66
2024/01/26 00:50:54;;;;;;;5.60;3.80;;;;;;;8.63;58.32;98997.74;108150;1253;60914;-65
2024/01/26 00:53:21;;;;;;;5.60;3.90;;;;;;;8.60;58.38;98997.86;108105;1253;60284;-66
2024/01/26 00:55:48;;;;;;;6.10;3.80;;;;;;;8.63;58.27;98996.89;108090;1253;74333;-66
2024/01/26 00:58:16;;;;;;;6.10;4.10;;;;;;;8.67;58.24;98995.64;108102;1253;68953;-65
2024/01/26 01:00:43;;;;;;;5.80;4.10;;;;;;;8.69;58.05;98993.81;108120;1256;71647;-66
2024/01/26 01:03:09;;;;;;;6.00;4.40;;;;;;;8.64;57.96;98998.06;108119;1256;61040;-65
2024/01/26 01:05:36;;;;;;;6.60;4.20;;;;;;;8.60;58.00;98993.17;108137;1253;60461;-65
2024/01/26 01:08:04;;;;;;;8.00;4.60;;;;;;;8.69;58.00;99002.56;108119;1253;73710;-68
2024/01/26 01:10:31;;;;;;;6.90;3.90;;;;;;;8.78;57.73;99004.73;108072;1253;70130;-67
2024/01/26 01:12:58;;;;;;;5.10;3.30;;;;;;;8.75;57.68;99005.76;108059;1253;72467;-65
2024/01/26 01:15:24;;;;;;;5.20;3.70;;;;;;;8.53;58.05;99006.61;108140;1257;61132;-65
2024/01/26 01:17:51;;;;;;;5.70;4.00;;;;;;;8.57;58.06;99003.98;108110;1253;60349;-65
2024/01/26 01:20:18;;;;;;;5.80;3.80;;;;;;;8.50;58.14;99006.41;108106;1253;72690;-64
2024/01/26 01:22:44;;;;;;;5.80;3.50;;;;;;;8.56;57.97;99008.38;108173;1253;70926;-64
2024/01/26 01:25:14;;;;;;;6.30;3.30;;;;;;;8.61;57.82;99013.23;108076;1253;73215;-66
2024/01/26 01:27:41;;;;;;;7.70;3.90;;;;;;;8.64;57.83;99014.52;108140;1256;61150;-66
2024/01/26 01:30:09;;;;;;;5.10;3.60;;;;;;;8.59;57.78;99015.95;108001;1253;60256;-65
2024/01/26 01:32:36;;;;;;;6.00;4.10;;;;;;;8.62;57.73;99023.71;108183;1253;73936;-64
2024/01/26 01:35:05;;;;;;;6.20;3.60;;;;;;;8.64;57.67;99020.12;108163;1253;70302;-66
2024/01/26 01:37:32;;;;;;;5.40;3.30;;;;;;;8.74;57.25;99016.64;108098;1253;72559;-65
2024/01/26 01:39:58;;;;;;;5.30;3.50;;;;;;;8.77;57.18;99021.09;108161;1253;61435;-65
2024/01/26 01:42:25;;;;;;;4.30;3.60;;;;;;;8.66;57.31;99019.30;108071;1253;60248;-65
2024/01/26 01:44:51;;;;;;;5.00;3.60;;;;;;;8.71;57.44;99019.78;108097;1253;60375;-65
2024/01/26 01:47:18;;;;;;;6.00;3.80;;;;;;;8.65;57.46;99025.29;108153;1253;70172;-65
2024/01/26 01:49:45;;;;;;;3.90;2.90;;;;;;;8.53;57.77;99025.30;108071;1253;70382;-67
2024/01/26 01:52:15;;;;;;;5.90;3.90;;;;;;;8.65;57.42;99031.08;108036;1253;60589;-66
2024/01/26 01:54:42;;;;;;;4.50;3.60;;;;;;;8.54;57.55;99028.42;108079;1253;60356;-67
2024/01/26 01:57:12;;;;;;;5.10;3.40;;;;;;;8.46;57.80;99033.70;108246;1253;59102;-65
2024/01/26 01:59:39;;;;;;;5.60;3.80;;;;;;;8.49;57.62;99033.36;108109;1253;69025;-64
2024/01/26 02:02:05;;;;;;;4.50;3.50;;;;;;;8.44;57.76;99038.00;107897;1253;72924;-66
2024/01/26 02:04:32;;;;;;;6.20;3.30;;;;;;;8.39;57.92;99040.50;108294;1253;61225;-66
2024/01/26 02:07:00;;;;;;;3.90;3.20;;;;;;;8.35;57.92;99043.98;108093;1253;60324;-66
2024/01/26 02:09:27;;;;;;;4.80;3.20;;;;;;;8.28;58.09;99042.36;108223;1253;73078;-66
2024/01/26 02:11:53;;;;;;;5.40;3.90;;;;;;;8.26;58.17;99046.11;108185;1254;70893;-66
2024/01/26 02:14:20;;;;;;;5.30;3.70;;;;;;;8.24;58.15;99045.20;108270;1253;73172;-67
2024/01/26 02:16:53;;;;;;;4.20;3.30;;;;;;;8.23;58.24;99047.67;108191;1253;60913;-66
2024/01/26 02:19:21;;;;;;;5.10;3.60;;;;;;;8.19;58.28;99047.47;108228;1253;60167;-66
2024/01/26 02:21:50;;;;;;;4.30;3.50;;;;;;;8.14;58.27;99047.17;108161;1253;74503;-65
2024/01/26 02:24:17;;;;;;;5.00;3.50;;;;;;;8.11;58.43;99052.52;108101;1257;70432;-65
2024/01/26 02:26:43;;;;;;;5.20;3.90;;;;;;;8.12;58.18;99056.32;107964;1256;71806;-67
2024/01/26 02:29:10;;;;;;;5.50;3.60;;;;;;;8.18;58.43;99059.73;108054;1253;61019;-66
2024/01/26 02:31:37;;;;;;;5.90;3.90;;;;;;;8.13;58.49;99065.38;108067;1253;60243;-67
2024/01/26 02:34:04;;;;;;;4.40;3.40;;;;;;;8.11;58.39;99061.63;107946;1254;73710;-66
2024/01/26 02:36:33;;;;;;;5.20;3.80;;;;;;;8.16;58.31;99067.88;107981;1254;69181;-67
2024/01/26 02:39:00;;;;;;;3.60;3.10;;;;;;;8.20;58.23;99066.48;107991;1254;72576;-66
2024/01/26 02:41:26;;;;;;;4.20;3.40;;;;;;;8.15;58.19;99073.89;108029;1255;61229;-65
2024/01/26 02:43:53;;;;;;;4.00;3.30;;;;;;;8.29;58.13;99069.08;107934;1255;60292;-66
2024/01/26 02:46:20;;;;;;;4.80;4.00;;;;;;;8.28;58.00;99072.25;107878;1256;74490;-66
2024/01/26 02:48:47;;;;;;;5.20;3.90;;;;;;;8.26;57.96;99072.01;108040;1254;71199;-66
2024/01/26 02:51:14;;;;;;;7.70;3.70;;;;;;;8.33;57.80;99073.60;107956;1255;72779;-67
2024/01/26 02:53:40;;;;;;;6.30;3.50;;;;;;;8.37;57.55;99073.41;107891;1254;60989;-65
2024/01/26 02:56:07;;;;;;;4.50;3.40;;;;;;;8.34;57.73;99078.48;107941;1258;60559;-68
2024/01/26 02:58:34;;;;;;;5.50;3.70;;;;;;;8.34;57.77;99082.66;107938;1254;73666;-66
2024/01/26 03:01:04;;;;;;;6.60;3.90;;;;;;;8.45;57.47;99081.16;107943;1254;70175;-67
2024/01/26 03:03:31;;;;;;;6.70;4.40;;;;;;;8.51;57.32;99085.95;108058;1254;71566;-66
2024/01/26 03:05:57;;;;;;;4.70;3.40;;;;;;;8.44;57.35;99091.53;107913;1254;60290;-65
2024/01/26 03:08:24;;;;;;;3.50;3.10;;;;;;;8.36;57.51;99094.33;107983;1256;60393;-66
2024/01/26 03:10:51;;;;;;;4.70;3.80;;;;;;;8.38;57.53;99096.32;107954;1256;74420;-65
2024/01/26 03:13:18;;;;;;;4.20;3.20;;;;;;;8.38;57.42;99095.60;107965;1258;70746;-66
2024/01/26 03:15:49;;;;;;;4.70;3.70;;;;;;;8.36;57.56;99094.45;107927;1260;71439;-66
2024/01/26 03:18:17;;;;;;;5.10;3.30;;;;;;;8.29;57.57;99100.02;107852;1254;60903;-65
2024/01/26 03:20:44;;;;;;;4.30;3.70;;;;;;;8.22;57.80;99107.13;107941;1255;60337;-66
2024/01/26 03:23:11;;;;;;;4.80;3.10;;;;;;;8.29;57.71;99108.78;107936;1254;73916;-66
2024/01/26 03:25:38;;;;;;;5.00;3.60;;;;;;;8.33;57.44;99111.38;107992;1254;70179;-66
2024/01/26 03:28:06;;;;;;;5.60;4.40;;;;;;;8.27;57.68;99114.96;107984;1254;72597;-67
2024/01/26 03:30:33;;;;;;;5.50;4.30;;;;;;;8.25;57.64;99111.02;108014;1258;61002;-66
2024/01/26 03:33:00;;;;;;;6.50;3.90;;;;;;;8.32;57.32;99112.13;108042;1253;59338;-66
2024/01/26 03:35:27;;;;;;;5.10;4.30;;;;;;;8.30;57.38;99114.48;108056;1257;74572;-66
2024/01/26 03:37:54;;;;;;;4.60;3.70;;;;;;;8.24;57.32;99121.57;108046;1253;69515;-66
2024/01/26 03:40:24;;;;;;;5.40;3.50;;;;;;;8.35;57.29;99122.85;108158;1253;70408;-66
2024/01/26 03:42:51;;;;;;;4.90;3.70;;;;;;;8.28;57.26;99125.45;108156;1253;61238;-65
2024/01/26 03:45:17;;;;;;;5.40;3.70;;;;;;;8.18;57.46;99129.69;108167;1253;60243;-67
2024/01/26 03:47:44;;;;;;;5.10;4.20;;;;;;;8.20;57.61;99132.23;108222;1253;73879;-66
2024/01/26 03:50:11;;;;;;;4.40;3.20;;;;;;;8.24;57.39;99133.11;108134;1253;69183;-65
2024/01/26 03:52:37;;;;;;;5.10;4.00;;;;;;;8.32;57.43;99131.38;108070;1257;72325;-66
2024/01/26 03:55:08;;;;;;;5.80;4.40;;;;;;;8.30;57.37;99135.84;108129;1253;61010;-66
2024/01/26 03:57:35;;;;;;;5.40;3.40;;;;;;;8.30;57.29;99135.98;108185;1253;60369;-65
2024/01/26 04:00:05;;;;;;;5.20;4.10;;;;;;;8.34;57.37;99136.00;108297;1253;74326;-67
2024/01/26 04:02:38;;;;;;;5.50;4.10;;;;;;;8.40;57.20;99135.77;108188;1253;69044;-67
2024/01/26 04:05:05;;;;;;;5.20;3.80;;;;;;;8.40;57.15;99139.93;108168;1253;72445;-66
2024/01/26 04:07:32;;;;;;;6.00;4.50;;;;;;;8.37;57.03;99140.77;108218;1253;60454;-66
2024/01/26 04:09:59;;;;;;;5.60;4.30;;;;;;;8.24;57.30;99147.27;108224;1253;60432;-66
2024/01/26 04:12:26;;;;;;;6.10;4.10;;;;;;;8.13;57.49;99148.28;108176;1253;74404;-66
2024/01/26 04:14:53;;;;;;;5.00;3.90;;;;;;;8.19;57.35;99155.02;108133;1253;70372;-66
2024/01/26 04:17:19;;;;;;;4.70;3.90;;;;;;;8.18;57.55;99158.69;108153;1256;72641;-65
2024/01/26 04:19:46;;;;;;;7.10;4.30;;;;;;;8.15;57.53;99154.81;108094;1253;60987;-66
2024/01/26 04:22:13;;;;;;;5.90;4.50;;;;;;;8.05;57.65;99159.77;108028;1253;60266;-66
2024/01/26 04:24:40;;;;;;;4.70;3.60;;;;;;;8.08;57.63;99165.61;108180;1257;74336;-66
2024/01/26 04:27:07;;;;;;;5.70;4.10;;;;;;;7.96;57.92;99164.01;108106;1253;70546;-66
2024/01/26 04:29:34;;;;;;;6.00;4.30;;;;;;;8.07;57.69;99171.94;108116;1253;72262;-66
2024/01/26 04:32:00;;;;;;;5.40;4.30;;;;;;;8.07;57.62;99170.55;108080;1253;61170;-66
2024/01/26 04:34:27;;;;;;;5.50;4.40;;;;;;;8.03;57.66;99171.95;108124;1253;60456;-66
2024/01/26 04:36:54;;;;;;;7.10;4.60;;;;;;;8.12;57.36;99173.48;108142;1253;73698;-66
2024/01/26 04:41:57;;;;;;;6.50;4.00;;;;;;;5.76;64.00;99183.77;104951;1292;600338;-66
2024/01/26 04:44:25;;;;;;;5.60;4.00;;;;;;;6.56;62.13;99185.31;107980;1255;59659;-67
2024/01/26 04:46:55;;;;;;;7.10;4.40;;;;;;;6.82;61.33;99188.71;108002;1254;59984;-67
2024/01/26 04:49:22;;;;;;;5.30;3.80;;;;;;;6.81;61.23;99187.36;108013;1255;71867;-66
2024/01/26 04:51:50;;;;;;;8.30;4.70;;;;;;;6.85;61.07;99187.77;107968;1255;68953;-66
2024/01/26 04:54:17;;;;;;;6.90;4.90;;;;;;;6.97;60.63;99192.02;107952;1255;71437;-66
2024/01/26 04:56:44;;;;;;;5.30;3.90;;;;;;;6.98;60.62;99196.19;108019;1253;113337;-66
2024/01/26 04:59:12;;;;;;;5.60;4.50;;;;;;;6.90;60.63;99196.62;108144;1256;59141;-66
2024/01/26 05:01:39;;;;;;;5.10;4.00;;;;;;;6.91;60.85;99195.39;108095;1253;72424;-66
2024/01/26 05:04:07;;;;;;;5.10;4.10;;;;;;;6.90;60.85;99193.85;108185;1253;68270;-66
2024/01/26 05:06:34;;;;;;;7.60;4.50;;;;;;;6.90;60.73;99199.77;108167;1253;71050;-66
2024/01/26 05:09:02;;;;;;;5.50;3.90;;;;;;;7.03;60.79;99199.99;108233;1253;59592;-65
2024/01/26 05:11:30;;;;;;;5.10;3.90;;;;;;;7.08;60.39;99206.63;108031;1253;60061;-67
2024/01/26 05:13:58;;;;;;;5.00;3.50;;;;;;;7.07;60.41;99210.33;107949;1253;72786;-67
2024/01/26 05:16:25;;;;;;;5.70;4.20;;;;;;;7.01;60.59;99218.07;107991;1253;69807;-67
2024/01/26 05:18:53;;;;;;;6.00;4.40;;;;;;;7.02;60.70;99223.27;107948;1253;72698;-66
2024/01/26 05:21:20;;;;;;;5.10;3.80;;;;;;;6.99;60.90;99225.11;107958;1255;60489;-66
2024/01/26 05:23:51;;;;;;;4.80;3.90;;;;;;;7.01;61.00;99226.78;107949;1253;59381;-67
2024/01/26 05:26:19;;;;;;;5.90;3.70;;;;;;;7.03;60.77;99227.22;107966;1253;72263;-66
2024/01/26 05:28:46;;;;;;;5.00;4.20;;;;;;;7.17;60.49;99230.20;107959;1253;68845;-67
2024/01/26 05:31:13;;;;;;;5.20;4.00;;;;;;;7.12;60.47;99232.98;108004;1253;72850;-67
2024/01/26 05:33:41;;;;;;;6.80;4.80;;;;;;;7.06;60.72;99237.94;107853;1256;59911;-66
2024/01/26 05:36:09;;;;;;;6.80;4.70;;;;;;;6.99;60.84;99243.61;107946;1256;59488;-66
2024/01/26 05:38:36;;;;;;;8.20;4.90;;;;;;;6.97;60.97;99246.65;107858;1256;73534;-65
2024/01/26 05:41:04;;;;;;;5.50;3.80;;;;;;;6.94;61.00;99249.70;107980;1255;70148;-66
2024/01/26 05:43:31;;;;;;;6.00;4.40;;;;;;;6.94;61.16;99256.67;107865;1255;72675;-66
2024/01/26 05:45:59;;;;;;;8.10;4.80;;;;;;;6.88;61.63;99258.30;108018;1256;60984;-66
2024/01/26 05:48:26;;;;;;;6.90;4.60;;;;;;;7.05;60.90;99265.71;108005;1256;60286;-66
2024/01/26 05:50:54;;;;;;;8.80;5.40;;;;;;;7.04;61.05;99266.82;108049;1255;71263;-66
2024/01/26 05:53:21;;;;;;;8.70;4.70;;;;;;;6.89;61.29;99265.92;107896;1255;69607;-66
2024/01/26 05:55:49;;;;;;;7.40;4.80;;;;;;;7.04;60.98;99270.48;107910;1260;72680;-67
2024/01/26 05:58:16;;;;;;;6.80;5.10;;;;;;;7.07;60.79;99273.70;107934;1256;59699;-69
2024/01/26 06:00:44;;;;;;;5.90;4.10;;;;;;;7.07;60.70;99273.70;107937;1255;59233;-67
2024/01/26 06:03:11;;;;;;;8.30;5.10;;;;;;;7.08;60.82;99278.68;108081;1256;73031;-68
2024/01/26 06:05:39;;;;;;;4.40;3.70;;;;;;;7.12;60.67;99281.88;108004;1257;68858;-66
2024/01/26 06:08:06;;;;;;;8.70;5.80;;;;;;;7.10;60.88;99286.30;108029;1255;72714;-67
2024/01/26 06:10:34;;;;;;;6.70;4.80;;;;;;;7.11;60.88;99289.59;108093;1256;59078;-66
2024/01/26 06:13:03;;;;;;;6.40;4.90;;;;;;;7.14;60.77;99295.05;108114;1256;60014;-66
2024/01/26 06:15:31;;;;;;;14.10;5.70;;;;;;;7.17;60.75;99298.11;108097;1254;71692;-66
2024/01/26 06:17:58;;;;;;;9.00;5.60;;;;;;;7.11;60.75;99300.05;108199;1256;69034;-66
2024/01/26 06:20:30;;;;;;;6.90;4.90;;;;;;;7.11;61.10;99301.44;108033;1254;71709;-66
2024/01/26 06:22:58;;;;;;;7.40;4.50;;;;;;;7.05;61.13;99307.25;108100;1257;60940;-66
2024/01/26 06:25:26;;;;;;;6.10;4.20;;;;;;;7.02;61.32;99311.21;108128;1254;59481;-66
2024/01/26 06:27:53;;;;;;;6.00;4.40;;;;;;;7.06;61.19;99316.14;108103;1256;73171;-66
2024/01/26 06:30:21;;;;;;;5.50;4.30;;;;;;;7.03;61.11;99314.67;108101;1254;70131;-66
2024/01/26 06:32:49;;;;;;;5.20;4.30;;;;;;;6.96;61.33;99312.99;108098;1254;71481;-66
2024/01/26 06:35:17;;;;;;;6.00;4.60;;;;;;;7.00;61.34;99318.30;107971;1256;60839;-66
2024/01/26 06:37:44;;;;;;;5.40;4.10;;;;;;;7.03;61.11;99319.91;107960;1254;60243;-66
2024/01/26 06:40:12;;;;;;;5.80;4.30;;;;;;;7.15;61.07;99325.41;107964;1256;73059;-66
2024/01/26 06:42:40;;;;;;;7.60;4.00;;;;;;;7.16;60.96;99323.79;107959;1256;70178;-66
2024/01/26 06:45:08;;;;;;;6.00;4.20;;;;;;;7.08;61.06;99328.26;107947;1258;71470;-68
2024/01/26 06:47:36;;;;;;;5.60;3.90;;;;;;;7.04;61.39;99328.08;107891;1255;61312;-66
2024/01/26 06:50:05;;;;;;;5.70;3.80;;;;;;;7.08;61.08;99332.81;107975;1255;59505;-66
2024/01/26 06:52:33;;;;;;;6.10;4.40;;;;;;;7.12;60.99;99336.85;108019;1256;73014;-65
2024/01/26 06:55:01;;;;;;;6.60;3.70;;;;;;;7.13;61.13;99345.91;107939;1258;68991;-64
2024/01/26 06:57:29;;;;;;;5.20;3.60;;;;;;;7.03;61.28;99348.37;107949;1254;72342;-66
2024/01/26 06:59:56;;;;;;;5.60;3.70;;;;;;;7.14;61.18;99351.96;107963;1256;60913;-64
2024/01/26 07:02:24;;;;;;;7.20;4.10;;;;;;;7.22;61.08;99350.83;107920;1256;59595;-66
2024/01/26 07:04:51;;;;;;;4.50;3.60;;;;;;;7.26;61.15;99358.02;107911;1258;71748;-62
2024/01/26 07:07:19;;;;;;;6.60;4.40;;;;;;;7.22;61.22;99357.10;107908;1256;69028;-66
2024/01/26 07:09:46;;;;;;;6.40;4.00;;;;;;;7.27;61.02;99361.64;107905;1256;71052;-67
2024/01/26 07:12:13;;;;;;;6.60;4.30;;;;;;;7.39;60.81;99364.17;107896;1256;59645;-67
2024/01/26 07:14:41;;;;;;;5.80;4.50;;;;;;;7.43;60.47;99367.90;107965;1254;60001;-67
2024/01/26 07:17:09;;;;;;;9.40;5.60;;;;;;;7.36;60.61;99369.17;107924;1254;71746;-67
2024/01/26 07:19:36;;;;;;;6.30;4.50;;;;;;;7.28;60.84;99376.80;107974;1254;70514;-66
2024/01/26 07:22:05;;;;;;;6.40;4.60;;;;;;;7.29;60.78;99381.27;107927;1256;72707;-67
2024/01/26 07:24:32;;;;;;;6.60;4.20;;;;;;;7.33;60.80;99384.83;107904;1258;60893;-67
2024/01/26 07:26:59;;;;;;;7.40;4.60;;;;;;;7.43;60.53;99388.30;107926;1254;59482;-67
2024/01/26 07:29:27;;;;;;;5.80;4.30;;;;;;;7.54;60.18;99388.77;107932;1256;71627;-66
2024/01/26 07:31:54;;;;;;;5.90;4.50;;;;;;;7.60;59.97;99391.00;107953;1253;70277;-67
2024/01/26 07:34:22;;;;;;;5.50;3.90;;;;;;;7.61;59.90;99391.48;108115;1253;73716;-67
2024/01/26 07:36:51;;;;;;;5.70;4.40;;;;;;;7.64;59.71;99395.03;108033;1254;59970;-67
2024/01/26 07:39:19;;;;;;;6.10;4.30;;;;;;;7.59;59.57;99399.27;108122;1253;59119;-67
2024/01/26 07:41:47;;;;;;;4.60;3.50;;;;;;;7.57;59.76;99401.94;108170;1253;70838;-67
2024/01/26 07:44:14;;;;;;;5.60;4.00;;;;;;;7.64;59.82;99404.48;108084;1253;69286;-67
2024/01/26 07:46:42;;;;;;;6.20;3.70;;;;;;;7.67;59.83;99406.13;108016;1253;72677;-67
2024/01/26 07:49:09;;;;;;;4.90;3.10;;;;;;;7.68;59.73;99405.91;108072;1257;59978;-67
2024/01/26 07:51:37;;;;;;;5.00;3.30;;;;;;;7.57;60.01;99407.52;107948;1253;60506;-67
2024/01/26 07:54:06;;;;;;;4.40;3.40;;;;;;;7.51;59.98;99415.27;108019;1253;73052;-67
2024/01/26 07:56:34;;;;;;;4.80;2.90;;;;;;;7.51;60.13;99416.48;108136;1254;70017;-68
2024/01/26 07:59:01;;;;;;;3.60;2.80;;;;;;;7.48;60.01;99419.56;108085;1256;72537;-67
2024/01/26 08:01:29;;;;;;;3.10;2.60;;;;;;;7.52;60.09;99420.81;108145;1253;61001;-66
2024/01/26 08:03:57;;;;;;;3.50;2.50;;;;;;;7.62;59.87;99422.55;108140;1254;59507;-67
2024/01/26 08:06:25;;;;;;;2.50;2.20;;;;;;;7.74;59.61;99426.84;108071;1253;71753;-67
2024/01/26 08:08:53;;;;;;;2.80;2.20;;;;;;;7.81;59.59;99431.64;108174;1253;69196;-66
2024/01/26 08:11:20;;;;;;;3.20;2.40;;;;;;;7.92;59.54;99439.11;108213;1254;71363;-68
2024/01/26 08:13:48;;;;;;;2.90;2.20;;;;;;;8.01;59.46;99441.76;108124;1253;60951;-67
2024/01/26 08:16:16;;;;;;;2.90;2.40;;;;;;;8.12;59.14;99442.55;108188;1253;58969;-66
2024/01/26 08:18:43;;;;;;;2.20;2.00;;;;;;;8.18;59.07;99446.18;108175;1253;73568;-66
2024/01/26 08:21:12;;;;;;;2.40;2.20;;;;;;;8.12;59.01;99452.18;108132;1256;68920;-66
2024/01/26 08:23:40;;;;;;;3.00;2.10;;;;;;;8.14;58.85;99456.83;108143;1255;70544;-66
2024/01/26 08:26:08;;;;;;;2.40;2.10;;;;;;;8.11;58.87;99459.38;108224;1253;59789;-67
2024/01/26 08:28:36;;;;;;;2.20;1.90;;;;;;;8.14;58.76;99461.70;108159;1253;59475;-66
2024/01/26 08:43:39;;;;;;;1.80;1.70;;;;;;;6.59;62.92;99480.80;105248;1285;613382;-67
2024/01/26 08:46:07;;;;;;;2.20;1.80;;;;;;;7.15;61.09;99480.92;107109;1265;84595;-66
2024/01/26 08:48:34;;;;;;;1.80;1.70;;;;;;;7.13;61.25;99480.85;107258;1265;60020;-66
2024/01/26 08:51:02;;;;;;;3.50;2.10;;;;;;;7.23;61.21;99484.55;107242;1265;70511;-67
2024/01/26 08:53:30;;;;;;;2.20;1.80;;;;;;;7.22;61.13;99484.36;107220;1265;70334;-67
2024/01/26 08:55:58;;;;;;;2.70;2.30;;;;;;;6.79;61.67;99487.34;107280;1265;72230;-66
2024/01/26 08:58:26;;;;;;;2.40;2.20;;;;;;;6.43;62.86;99494.22;107317;1265;61124;-66
2024/01/26 09:00:54;;;;;;;2.10;1.90;;;;;;;6.44;63.09;99494.70;107304;1266;59605;-67
2024/01/26 09:03:21;;;;;;;2.60;1.90;;;;;;;6.48;62.98;99496.33;107320;1265;72243;-66
2024/01/26 09:05:49;;;;;;;3.60;2.40;;;;;;;6.52;63.03;99492.91;107320;1265;72372;-66
2024/01/26 09:08:17;;;;;;;2.00;1.80;;;;;;;6.53;63.13;99494.63;107278;1266;71525;-66
2024/01/26 09:10:44;;;;;;;2.70;2.20;;;;;;;6.53;63.30;99493.75;107240;1265;61058;-66
2024/01/26 09:13:12;;;;;;;3.10;2.60;;;;;;;6.54;63.30;99494.25;107635;1262;59568;-66
2024/01/26 09:15:39;;;;;;;2.70;2.10;;;;;;;6.56;63.24;99496.95;107636;1257;71800;-66
2024/01/26 09:18:06;;;;;;;4.70;2.30;;;;;;;6.59;63.06;99494.43;107626;1258;69644;-67
2024/01/26 09:20:34;;;;;;;2.00;1.90;;;;;;;6.57;63.19;99500.08;107641;1258;72434;-66
2024/01/26 09:23:02;;;;;;;2.50;1.90;;;;;;;6.47;63.74;99505.61;107803;1257;60840;-66
2024/01/26 09:25:30;;;;;;;2.00;1.80;;;;;;;6.39;64.12;99501.81;107680;1258;59968;-66
2024/01/26 09:27:57;;;;;;;5.00;3.30;;;;;;;6.37;63.65;99503.64;107626;1257;75520;-66
2024/01/26 09:30:25;;;;;;;4.20;2.60;;;;;;;6.30;63.74;99509.27;107624;1258;70227;-66
2024/01/26 09:32:52;;;;;;;2.20;2.00;;;;;;;6.36;63.62;99510.83;107678;1258;72974;-66
2024/01/26 09:35:20;;;;;;;2.00;1.80;;;;;;;6.36;63.73;99510.82;107635;1259;61117;-66
2024/01/26 09:37:48;;;;;;;1.80;1.50;;;;;;;6.39;63.42;99509.84;107465;1259;59403;-66
2024/01/26 09:40:15;;;;;;;1.60;1.50;;;;;;;6.46;63.49;99505.13;107472;1263;75308;-66
2024/01/26 09:42:43;;;;;;;2.00;1.80;;;;;;;6.62;62.92;99507.41;107392;1259;70300;-66
2024/01/26 09:45:13;;;;;;;1.60;1.50;;;;;;;6.60;62.97;99508.73;107629;1258;71194;-67
2024/01/26 09:47:44;;;;;;;1.80;1.60;;;;;;;6.62;63.08;99513.54;107617;1259;60881;-67
2024/01/26 09:50:12;;;;;;;1.70;1.50;;;;;;;6.66;62.51;99510.96;107635;1258;62228;-66
2024/01/26 09:52:40;;;;;;;1.40;1.30;;;;;;;6.66;62.67;99514.45;107626;1258;72418;-66
2024/01/26 09:55:07;;;;;;;2.10;1.80;;;;;;;6.63;62.38;99509.83;107633;1259;70162;-67
2024/01/26 09:57:35;;;;;;;1.90;1.70;;;;;;;6.63;62.21;99513.50;107606;1259;73091;-67
2024/01/26 10:00:04;;;;;;;2.30;1.70;;;;;;;6.67;62.53;99519.48;107498;1264;60574;-66
2024/01/26 10:02:32;;;;;;;3.00;2.20;;;;;;;6.71;62.06;99516.39;107721;1259;59816;-67
2024/01/26 10:05:00;;;;;;;1.50;1.40;;;;;;;6.81;61.59;99511.19;107616;1259;71841;-67
2024/01/26 10:07:27;;;;;;;1.70;1.50;;;;;;;6.95;61.25;99507.79;107629;1259;69261;-66
2024/01/26 10:09:55;;;;;;;1.50;1.40;;;;;;;7.38;59.62;99505.67;107604;1259;71900;-67
2024/01/26 10:12:23;;;;;;;1.60;1.50;;;;;;;7.50;59.49;99506.64;107629;1259;59889;-65
2024/01/26 10:15:04;;;;;;;2.70;1.90;;;;;;;7.59;59.14;99510.70;107538;1264;60501;-66
2024/01/26 10:17:32;;;;;;;1.40;1.30;;;;;;;7.65;59.29;99509.13;107672;1263;73186;-67
2024/01/26 10:20:08;;;;;;;1.40;1.30;;;;;;;7.68;59.53;99511.61;107925;1255;69816;-67
2024/01/26 10:22:37;;;;;;;3.30;1.80;;;;;;;7.68;59.37;99513.02;107935;1256;72514;-66
2024/01/26 10:25:06;;;;;;;1.80;1.30;;;;;;;7.71;59.10;99519.21;107890;1256;60582;-67
2024/01/26 10:27:34;;;;;;;1.30;1.20;;;;;;;7.76;58.61;99519.38;107700;1256;59617;-67
2024/01/26 10:30:05;;;;;;;1.20;1.10;;;;;;;7.83;58.24;99522.29;107913;1256;71766;-67
2024/01/26 10:32:33;;;;;;;1.70;1.30;;;;;;;7.87;58.23;99531.75;107850;1256;68906;-66
2024/01/26 10:35:03;;;;;;;1.60;1.40;;;;;;;7.74;57.99;99534.64;107865;1256;72963;-66
2024/01/26 10:37:34;;;;;;;2.50;1.50;;;;;;;7.74;57.55;99537.80;107862;1256;60162;-67
2024/01/26 10:40:06;;;;;;;2.30;1.80;;;;;;;7.81;57.87;99542.09;107848;1256;59553;-67
2024/01/26 10:42:33;;;;;;;1.70;1.30;;;;;;;7.80;57.67;99542.66;107620;1256;72098;-67
2024/01/26 10:45:01;;;;;;;1.80;1.60;;;;;;;7.73;57.89;99544.65;107702;1256;70472;-67
2024/01/26 10:47:29;;;;;;;1.70;1.60;;;;;;;7.79;57.90;99546.71;107891;1256;71707;-67
2024/01/26 10:49:57;;;;;;;2.10;1.60;;;;;;;7.75;57.64;99545.80;107598;1256;60344;-66
2024/01/26 10:52:24;;;;;;;1.90;1.70;;;;;;;7.69;57.68;99546.89;107896;1260;62206;-67
2024/01/26 10:54:55;;;;;;;2.10;1.40;;;;;;;7.69;57.78;99550.73;107894;1261;71877;-67
2024/01/26 10:57:22;;;;;;;2.10;1.30;;;;;;;7.50;58.48;99548.23;107939;1256;70239;-67
2024/01/26 10:59:50;;;;;;;1.80;1.60;;;;;;;7.76;58.38;99550.14;107925;1256;71542;-66
2024/01/26 11:02:33;;;;;;;1.90;1.60;;;;;;;7.88;58.03;99553.75;107922;1256;61881;-66
2024/01/26 11:05:07;;;;;;;1.50;1.30;;;;;;;7.70;58.67;99555.95;107981;1256;60994;-66
2024/01/26 11:07:36;;;;;;;2.70;1.50;;;;;;;7.74;58.83;99557.70;107915;1256;73659;-67
2024/01/26 11:10:06;;;;;;;1.80;1.50;;;;;;;7.84;58.81;99557.72;107740;1256;70629;-66
2024/01/26 11:12:34;;;;;;;1.40;1.30;;;;;;;8.05;58.15;99562.41;107991;1256;71442;-66
2024/01/26 11:15:04;;;;;;;1.40;1.20;;;;;;;7.83;58.46;99562.30;107952;1256;60974;-67
2024/01/26 11:17:58;;;;;;;2.10;1.40;;;;;;;8.02;58.30;99563.91;107967;1256;60398;-67
2024/01/26 11:20:31;;;;;;;1.90;1.50;;;;;;;8.06;58.29;99562.17;107934;1256;73312;-66
2024/01/26 11:23:04;;;;;;;2.00;1.80;;;;;;;7.95;57.84;99566.25;107912;1260;69203;-66
2024/01/26 11:25:35;;;;;;;2.30;2.00;;;;;;;7.93;57.89;99567.55;107909;1255;74544;-66
2024/01/26 11:28:04;;;;;;;2.30;1.60;;;;;;;7.96;57.97;99570.24;107923;1256;59933;-66
2024/01/26 11:30:32;;;;;;;2.20;1.60;;;;;;;7.79;58.16;99570.12;107879;1256;59512;-67
2024/01/26 11:32:59;;;;;;;2.10;1.90;;;;;;;7.22;59.86;99577.77;107775;1255;73149;-66
2024/01/26 11:35:27;;;;;;;2.60;2.10;;;;;;;7.11;60.41;99574.64;107691;1256;69692;-67
2024/01/26 11:37:56;;;;;;;3.10;1.50;;;;;;;7.09;60.34;99583.25;107688;1255;71821;-65
2024/01/26 11:40:23;;;;;;;1.50;1.40;;;;;;;7.12;60.33;99582.13;107653;1256;60942;-66
2024/01/26 11:42:51;;;;;;;2.00;1.60;;;;;;;7.04;60.47;99586.75;107750;1255;59668;-66
2024/01/26 11:45:42;;;;;;;1.50;1.40;;;;;;;6.99;60.40;99590.05;107858;1255;75319;-64
2024/01/26 11:48:11;;;;;;;1.90;1.50;;;;;;;7.06;60.72;99587.90;107675;1256;69772;-67
2024/01/26 11:50:43;;;;;;;2.80;1.50;;;;;;;7.15;60.52;99591.44;107675;1257;73143;-65
2024/01/26 11:53:13;;;;;;;1.70;1.50;;;;;;;7.31;60.38;99589.38;107718;1256;59873;-66